sensor_id;sensor_type;location;lat;lon;timestamp;pressure;altitude;pressure_sealevel;temperature;humidity
36222;BME280;22266;52.340;4.962;2023-04-02T00:03:05;101299.78;;;7.00;78.88
36222;BME280;22266;52.340;4.962;2023-04-02T00:08:04;101308.63;;;6.92;78.11
36222;BME280;22266;52.340;4.962;2023-04-02T00:15:45;101307.25;;;6.88;78.80
36222;BME280;22266;52.340;4.962;2023-04-02T00:18:14;101318.19;;;6.95;78.86
36222;BME280;22266;52.340;4.962;2023-04-02T00:20:46;101323.88;;;7.00;77.71
36222;BME280;22266;52.340;4.962;2023-04-02T00:23:13;101317.69;;;7.00;78.38
36222;BME280;22266;52.340;4.962;2023-04-02T00:25:42;101323.41;;;7.05;78.40
36222;BME280;22266;52.340;4.962;2023-04-02T00:28:17;101328.84;;;6.87;76.48
36222;BME280;22266;52.340;4.962;2023-04-02T00:30:50;101331.81;;;6.84;78.06
36222;BME280;22266;52.340;4.962;2023-04-02T00:33:21;101333.06;;;6.89;78.13
36222;BME280;22266;52.340;4.962;2023-04-02T00:35:49;101344.94;;;6.95;77.84
36222;BME280;22266;52.340;4.962;2023-04-02T00:38:32;101342.44;;;6.93;77.05
36222;BME280;22266;52.340;4.962;2023-04-02T00:41:02;101355.59;;;6.87;77.06
36222;BME280;22266;52.340;4.962;2023-04-02T00:43:34;101354.75;;;6.86;77.59
36222;BME280;22266;52.340;4.962;2023-04-02T00:46:14;101364.81;;;6.92;77.93
36222;BME280;22266;52.340;4.962;2023-04-02T00:49:06;101369.81;;;6.87;77.82
36222;BME280;22266;52.340;4.962;2023-04-02T00:51:37;101370.13;;;6.84;77.43
36222;BME280;22266;52.340;4.962;2023-04-02T00:54:10;101374.50;;;6.85;77.70
36222;BME280;22266;52.340;4.962;2023-04-02T00:56:46;101377.84;;;6.87;77.56
36222;BME280;22266;52.340;4.962;2023-04-02T00:59:29;101376.53;;;6.91;77.60
36222;BME280;22266;52.340;4.962;2023-04-02T01:02:00;101381.88;;;6.91;76.92
36222;BME280;22266;52.340;4.962;2023-04-02T01:04:56;101395.06;;;6.85;76.86
36222;BME280;22266;52.340;4.962;2023-04-02T01:07:38;101397.63;;;6.68;76.34
36222;BME280;22266;52.340;4.962;2023-04-02T01:13:07;101397.03;;;6.57;75.55
36222;BME280;22266;52.340;4.962;2023-04-02T01:15:52;101406.66;;;6.50;76.43
36222;BME280;22266;52.340;4.962;2023-04-02T01:18:44;101408.88;;;6.54;77.04
36222;BME280;22266;52.340;4.962;2023-04-02T01:24:12;101429.41;;;6.54;76.53
36222;BME280;22266;52.340;4.962;2023-04-02T01:26:56;101423.00;;;6.47;76.35
36222;BME280;22266;52.340;4.962;2023-04-02T01:29:37;101427.34;;;6.48;77.09
36222;BME280;22266;52.340;4.962;2023-04-02T01:32:08;101436.66;;;6.43;76.79
36222;BME280;22266;52.340;4.962;2023-04-02T01:34:37;101434.41;;;6.49;76.40
36222;BME280;22266;52.340;4.962;2023-04-02T01:42:48;101443.31;;;6.39;77.01
36222;BME280;22266;52.340;4.962;2023-04-02T01:45:18;101452.09;;;6.32;76.66
36222;BME280;22266;52.340;4.962;2023-04-02T01:47:47;101451.97;;;6.33;77.42
36222;BME280;22266;52.340;4.962;2023-04-02T01:50:29;101462.66;;;6.33;77.40
36222;BME280;22266;52.340;4.962;2023-04-02T01:53:04;101463.56;;;6.24;76.53
36222;BME280;22266;52.340;4.962;2023-04-02T01:55:42;101468.38;;;6.21;77.64
36222;BME280;22266;52.340;4.962;2023-04-02T01:58:11;101473.66;;;6.30;77.68
36222;BME280;22266;52.340;4.962;2023-04-02T02:00:48;101468.91;;;6.24;77.57
36222;BME280;22266;52.340;4.962;2023-04-02T02:03:17;101490.81;;;6.28;77.54
36222;BME280;22266;52.340;4.962;2023-04-02T02:05:45;101483.56;;;6.20;77.01
36222;BME280;22266;52.340;4.962;2023-04-02T02:08:29;101491.19;;;6.15;77.30
36222;BME280;22266;52.340;4.962;2023-04-02T02:10:57;101495.84;;;6.13;76.98
36222;BME280;22266;52.340;4.962;2023-04-02T02:13:24;101496.13;;;6.10;77.18
36222;BME280;22266;52.340;4.962;2023-04-02T02:15:51;101501.78;;;6.07;76.98
36222;BME280;22266;52.340;4.962;2023-04-02T02:18:20;101501.84;;;5.97;77.00
36222;BME280;22266;52.340;4.962;2023-04-02T02:20:50;101506.19;;;5.98;76.95
36222;BME280;22266;52.340;4.962;2023-04-02T02:23:17;101515.88;;;5.99;76.49
36222;BME280;22266;52.340;4.962;2023-04-02T02:25:45;101504.13;;;5.92;76.45
36222;BME280;22266;52.340;4.962;2023-04-02T02:28:30;101516.59;;;5.91;76.93
36222;BME280;22266;52.340;4.962;2023-04-02T02:31:01;101522.50;;;5.95;77.71
36222;BME280;22266;52.340;4.962;2023-04-02T02:33:32;101526.56;;;5.99;77.49
36222;BME280;22266;52.340;4.962;2023-04-02T02:36:27;101533.47;;;6.02;77.34
36222;BME280;22266;52.340;4.962;2023-04-02T02:39:06;101550.50;;;6.01;76.86
36222;BME280;22266;52.340;4.962;2023-04-02T02:41:46;101541.06;;;5.97;76.62
36222;BME280;22266;52.340;4.962;2023-04-02T02:44:19;101548.66;;;5.91;77.27
36222;BME280;22266;52.340;4.962;2023-04-02T02:47:02;101548.66;;;5.91;77.54
36222;BME280;22266;52.340;4.962;2023-04-02T02:49:32;101558.94;;;5.96;76.99
36222;BME280;22266;52.340;4.962;2023-04-02T02:54:48;101570.34;;;5.79;77.22
36222;BME280;22266;52.340;4.962;2023-04-02T02:57:22;101575.41;;;5.82;77.31
36222;BME280;22266;52.340;4.962;2023-04-02T02:59:51;101576.00;;;5.76;77.11
36222;BME280;22266;52.340;4.962;2023-04-02T03:02:20;101572.47;;;5.75;77.39
36222;BME280;22266;52.340;4.962;2023-04-02T03:04:51;101592.75;;;5.68;77.81
36222;BME280;22266;52.340;4.962;2023-04-02T03:07:22;101601.72;;;5.67;77.74
36222;BME280;22266;52.340;4.962;2023-04-02T03:12:49;101605.66;;;5.63;77.75
36222;BME280;22266;52.340;4.962;2023-04-02T03:15:39;101613.69;;;5.63;77.03
36222;BME280;22266;52.340;4.962;2023-04-02T03:18:40;101611.59;;;5.57;76.96
36222;BME280;22266;52.340;4.962;2023-04-02T03:24:02;101633.50;;;5.51;77.17
36222;BME280;22266;52.340;4.962;2023-04-02T03:26:34;101633.22;;;5.54;76.64
36222;BME280;22266;52.340;4.962;2023-04-02T03:31:34;101641.94;;;5.46;76.81
36222;BME280;22266;52.340;4.962;2023-04-02T03:34:25;101641.81;;;5.48;76.98
36222;BME280;22266;52.340;4.962;2023-04-02T03:37:03;101648.13;;;5.46;76.85
36222;BME280;22266;52.340;4.962;2023-04-02T03:39:35;101658.66;;;5.38;76.89
36222;BME280;22266;52.340;4.962;2023-04-02T03:42:14;101658.69;;;5.29;76.40
36222;BME280;22266;52.340;4.962;2023-04-02T03:44:48;101677.38;;;5.19;76.65
36222;BME280;22266;52.340;4.962;2023-04-02T03:47:25;101679.03;;;5.20;76.66
36222;BME280;22266;52.340;4.962;2023-04-02T03:49:59;101691.56;;;5.19;76.59
36222;BME280;22266;52.340;4.962;2023-04-02T03:52:28;101686.34;;;5.18;75.81
36222;BME280;22266;52.340;4.962;2023-04-02T03:54:59;101695.75;;;5.22;76.29
36222;BME280;22266;52.340;4.962;2023-04-02T03:58:08;101691.97;;;5.25;75.69
36222;BME280;22266;52.340;4.962;2023-04-02T04:00:42;101705.31;;;5.25;76.71
36222;BME280;22266;52.340;4.962;2023-04-02T04:03:15;101706.16;;;5.25;76.42
36222;BME280;22266;52.340;4.962;2023-04-02T04:06:00;101712.78;;;5.31;75.95
36222;BME280;22266;52.340;4.962;2023-04-02T04:08:34;101709.53;;;5.27;76.92
36222;BME280;22266;52.340;4.962;2023-04-02T04:11:12;101727.25;;;5.28;75.63
36222;BME280;22266;52.340;4.962;2023-04-02T04:13:54;101724.41;;;5.20;75.62
36222;BME280;22266;52.340;4.962;2023-04-02T04:16:30;101737.47;;;5.13;76.35
36222;BME280;22266;52.340;4.962;2023-04-02T04:19:02;101756.28;;;5.12;76.52
36222;BME280;22266;52.340;4.962;2023-04-02T04:21:32;101756.81;;;5.06;75.32
36222;BME280;22266;52.340;4.962;2023-04-02T04:24:23;101764.81;;;4.96;75.36
36222;BME280;22266;52.340;4.962;2023-04-02T04:26:59;101762.28;;;4.94;76.42
36222;BME280;22266;52.340;4.962;2023-04-02T04:29:40;101768.16;;;4.98;75.49
36222;BME280;22266;52.340;4.962;2023-04-02T04:32:24;101775.72;;;4.83;74.50
36222;BME280;22266;52.340;4.962;2023-04-02T04:35:25;101782.28;;;4.79;74.83
36222;BME280;22266;52.340;4.962;2023-04-02T04:37:57;101794.06;;;4.77;73.48
36222;BME280;22266;52.340;4.962;2023-04-02T04:40:32;101804.69;;;4.67;73.21
36222;BME280;22266;52.340;4.962;2023-04-02T04:43:08;101798.38;;;4.68;73.25
36222;BME280;22266;52.340;4.962;2023-04-02T04:45:50;101809.59;;;4.62;73.13
36222;BME280;22266;52.340;4.962;2023-04-02T04:51:02;101817.56;;;4.41;72.51
36222;BME280;22266;52.340;4.962;2023-04-02T04:53:29;101828.81;;;4.44;73.33
36222;BME280;22266;52.340;4.962;2023-04-02T04:56:00;101840.41;;;4.55;73.78
36222;BME280;22266;52.340;4.962;2023-04-02T05:01:43;101839.63;;;4.43;71.32
36222;BME280;22266;52.340;4.962;2023-04-02T05:06:53;101857.56;;;4.41;71.79
36222;BME280;22266;52.340;4.962;2023-04-02T05:09:43;101853.13;;;4.30;72.38
36222;BME280;22266;52.340;4.962;2023-04-02T05:12:20;101861.25;;;4.29;71.73
36222;BME280;22266;52.340;4.962;2023-04-02T05:14:57;101872.44;;;4.22;72.41
36222;BME280;22266;52.340;4.962;2023-04-02T05:17:30;101875.09;;;4.22;71.88
36222;BME280;22266;52.340;4.962;2023-04-02T05:20:27;101876.56;;;4.15;71.66
36222;BME280;22266;52.340;4.962;2023-04-02T05:23:01;101883.00;;;4.13;70.97
36222;BME280;22266;52.340;4.962;2023-04-02T05:25:31;101889.81;;;4.06;71.09
36222;BME280;22266;52.340;4.962;2023-04-02T05:28:14;101886.19;;;4.07;72.23
36222;BME280;22266;52.340;4.962;2023-04-02T05:30:54;101892.34;;;4.07;71.53
36222;BME280;22266;52.340;4.962;2023-04-02T05:33:25;101889.19;;;4.13;72.33
36222;BME280;22266;52.340;4.962;2023-04-02T05:36:19;101907.47;;;4.18;72.36
36222;BME280;22266;52.340;4.962;2023-04-02T05:38:52;101927.81;;;4.19;72.12
36222;BME280;22266;52.340;4.962;2023-04-02T05:41:33;101915.06;;;4.22;71.81
36222;BME280;22266;52.340;4.962;2023-04-02T05:46:46;101939.31;;;4.19;70.52
36222;BME280;22266;52.340;4.962;2023-04-02T05:49:34;101944.56;;;4.10;70.04
36222;BME280;22266;52.340;4.962;2023-04-02T05:52:12;101957.38;;;4.05;71.19
36222;BME280;22266;52.340;4.962;2023-04-02T05:54:51;101960.03;;;4.16;71.89
36222;BME280;22266;52.340;4.962;2023-04-02T05:57:25;101970.81;;;4.14;70.21
36222;BME280;22266;52.340;4.962;2023-04-02T06:00:17;101984.63;;;4.08;70.95
36222;BME280;22266;52.340;4.962;2023-04-02T06:02:51;101974.94;;;4.07;71.16
36222;BME280;22266;52.340;4.962;2023-04-02T06:05:25;101992.75;;;4.07;70.99
36222;BME280;22266;52.340;4.962;2023-04-02T06:10:36;102008.13;;;4.03;71.17
36222;BME280;22266;52.340;4.962;2023-04-02T06:13:15;102008.97;;;3.92;69.85
36222;BME280;22266;52.340;4.962;2023-04-02T06:15:44;102013.13;;;3.85;71.17
36222;BME280;22266;52.340;4.962;2023-04-02T06:18:20;102026.69;;;3.82;71.34
36222;BME280;22266;52.340;4.962;2023-04-02T06:20:50;102024.63;;;3.86;71.25
36222;BME280;22266;52.340;4.962;2023-04-02T06:23:22;102034.66;;;3.93;71.45
36222;BME280;22266;52.340;4.962;2023-04-02T06:26:02;102033.94;;;3.91;70.68
36222;BME280;22266;52.340;4.962;2023-04-02T06:28:51;102034.41;;;3.96;71.31
36222;BME280;22266;52.340;4.962;2023-04-02T06:31:26;102048.59;;;3.86;70.63
36222;BME280;22266;52.340;4.962;2023-04-02T06:33:55;102052.22;;;3.74;70.96
36222;BME280;22266;52.340;4.962;2023-04-02T06:36:26;102063.34;;;3.67;71.46
36222;BME280;22266;52.340;4.962;2023-04-02T06:39:00;102065.50;;;3.62;71.73
36222;BME280;22266;52.340;4.962;2023-04-02T06:41:29;102070.84;;;3.62;71.36
36222;BME280;22266;52.340;4.962;2023-04-02T06:44:20;102073.38;;;3.64;72.07
36222;BME280;22266;52.340;4.962;2023-04-02T06:47:40;102086.69;;;3.64;72.31
36222;BME280;22266;52.340;4.962;2023-04-02T06:50:20;102088.16;;;3.68;72.31
36222;BME280;22266;52.340;4.962;2023-04-02T06:52:52;102093.47;;;3.68;71.33
36222;BME280;22266;52.340;4.962;2023-04-02T06:55:46;102090.81;;;3.57;71.17
36222;BME280;22266;52.340;4.962;2023-04-02T06:58:20;102103.25;;;3.45;72.03
36222;BME280;22266;52.340;4.962;2023-04-02T07:00:49;102104.81;;;3.47;72.45
36222;BME280;22266;52.340;4.962;2023-04-02T07:03:42;102107.72;;;3.44;69.78
36222;BME280;22266;52.340;4.962;2023-04-02T07:06:20;102117.13;;;3.37;70.65
36222;BME280;22266;52.340;4.962;2023-04-02T07:08:49;102112.50;;;3.28;70.79
36222;BME280;22266;52.340;4.962;2023-04-02T07:11:19;102120.72;;;3.25;71.24
36222;BME280;22266;52.340;4.962;2023-04-02T07:13:49;102132.09;;;3.27;71.22
36222;BME280;22266;52.340;4.962;2023-04-02T07:16:19;102130.66;;;3.34;72.45
36222;BME280;22266;52.340;4.962;2023-04-02T07:18:47;102130.09;;;3.42;70.74
36222;BME280;22266;52.340;4.962;2023-04-02T07:21:14;102146.41;;;3.37;70.80
36222;BME280;22266;52.340;4.962;2023-04-02T07:23:41;102159.31;;;3.31;71.39
36222;BME280;22266;52.340;4.962;2023-04-02T07:26:12;102163.06;;;3.28;71.15
36222;BME280;22266;52.340;4.962;2023-04-02T07:28:39;102166.81;;;3.26;70.09
36222;BME280;22266;52.340;4.962;2023-04-02T07:31:23;102166.88;;;3.24;70.47
36222;BME280;22266;52.340;4.962;2023-04-02T07:33:54;102175.41;;;3.29;70.48
36222;BME280;22266;52.340;4.962;2023-04-02T07:36:24;102178.16;;;3.52;71.41
36222;BME280;22266;52.340;4.962;2023-04-02T07:38:51;102178.19;;;3.63;70.35
36222;BME280;22266;52.340;4.962;2023-04-02T07:41:18;102188.34;;;3.58;69.20
36222;BME280;22266;52.340;4.962;2023-04-02T07:43:45;102207.22;;;3.55;69.76
36222;BME280;22266;52.340;4.962;2023-04-02T07:46:12;102210.34;;;3.49;69.58
36222;BME280;22266;52.340;4.962;2023-04-02T07:48:42;102195.03;;;3.39;68.56
36222;BME280;22266;52.340;4.962;2023-04-02T07:51:19;102200.88;;;3.44;68.82
36222;BME280;22266;52.340;4.962;2023-04-02T07:53:47;102218.06;;;3.52;68.72
36222;BME280;22266;52.340;4.962;2023-04-02T07:56:21;102215.41;;;3.52;68.49
36222;BME280;22266;52.340;4.962;2023-04-02T07:58:48;102216.25;;;3.52;68.80
36222;BME280;22266;52.340;4.962;2023-04-02T08:01:22;102224.88;;;3.56;68.58
36222;BME280;22266;52.340;4.962;2023-04-02T08:03:52;102226.59;;;3.57;68.46
36222;BME280;22266;52.340;4.962;2023-04-02T08:06:21;102218.75;;;3.66;68.55
36222;BME280;22266;52.340;4.962;2023-04-02T08:08:48;102224.13;;;3.78;67.69
36222;BME280;22266;52.340;4.962;2023-04-02T08:11:15;102224.22;;;3.76;67.14
36222;BME280;22266;52.340;4.962;2023-04-02T08:13:41;102232.13;;;3.89;68.36
36222;BME280;22266;52.340;4.962;2023-04-02T08:16:08;102222.34;;;4.01;67.96
36222;BME280;22266;52.340;4.962;2023-04-02T08:18:35;102231.47;;;4.09;67.54
36222;BME280;22266;52.340;4.962;2023-04-02T08:21:06;102235.59;;;4.13;67.29
36222;BME280;22266;52.340;4.962;2023-04-02T08:23:34;102242.00;;;4.11;66.95
36222;BME280;22266;52.340;4.962;2023-04-02T08:26:02;102250.84;;;4.11;66.99
36222;BME280;22266;52.340;4.962;2023-04-02T08:28:28;102253.84;;;3.95;67.15
36222;BME280;22266;52.340;4.962;2023-04-02T08:30:55;102261.91;;;3.83;67.06
36222;BME280;22266;52.340;4.962;2023-04-02T08:33:21;102262.53;;;3.86;67.53
36222;BME280;22266;52.340;4.962;2023-04-02T08:35:48;102270.78;;;3.94;67.67
36222;BME280;22266;52.340;4.962;2023-04-02T08:38:18;102281.13;;;4.10;67.63
36222;BME280;22266;52.340;4.962;2023-04-02T08:40:50;102278.59;;;4.20;67.93
36222;BME280;22266;52.340;4.962;2023-04-02T08:48:23;102287.66;;;4.64;65.21
36222;BME280;22266;52.340;4.962;2023-04-02T08:50:50;102293.47;;;4.58;64.42
36222;BME280;22266;52.340;4.962;2023-04-02T08:53:24;102296.16;;;4.58;64.31
36222;BME280;22266;52.340;4.962;2023-04-02T08:55:59;102298.31;;;4.64;63.86
36222;BME280;22266;52.340;4.962;2023-04-02T08:58:39;102301.34;;;4.59;63.04
36222;BME280;22266;52.340;4.962;2023-04-02T09:01:18;102308.59;;;4.57;63.07
36222;BME280;22266;52.340;4.962;2023-04-02T09:03:49;102312.59;;;4.52;63.57
36222;BME280;22266;52.340;4.962;2023-04-02T09:06:18;102330.09;;;4.67;64.81
36222;BME280;22266;52.340;4.962;2023-04-02T09:08:46;102330.47;;;4.96;64.72
36222;BME280;22266;52.340;4.962;2023-04-02T09:13:51;102335.41;;;5.57;61.95
36222;BME280;22266;52.340;4.962;2023-04-02T09:16:31;102337.69;;;5.61;61.17
36222;BME280;22266;52.340;4.962;2023-04-02T09:19:12;102341.88;;;5.86;61.85
36222;BME280;22266;52.340;4.962;2023-04-02T09:21:45;102338.72;;;5.92;60.40
36222;BME280;22266;52.340;4.962;2023-04-02T09:24:13;102349.03;;;5.97;60.62
36222;BME280;22266;52.340;4.962;2023-04-02T09:26:40;102343.75;;;6.07;60.07
36222;BME280;22266;52.340;4.962;2023-04-02T09:31:36;102358.31;;;5.70;60.64
36222;BME280;22266;52.340;4.962;2023-04-02T09:36:54;102372.94;;;5.87;61.42
36222;BME280;22266;52.340;4.962;2023-04-02T09:39:23;102366.00;;;6.07;60.44
36222;BME280;22266;52.340;4.962;2023-04-02T09:41:51;102369.56;;;6.29;60.01
36222;BME280;22266;52.340;4.962;2023-04-02T09:44:31;102368.00;;;6.26;59.77
36222;BME280;22266;52.340;4.962;2023-04-02T09:47:05;102372.16;;;6.40;59.82
36222;BME280;22266;52.340;4.962;2023-04-02T09:49:48;102363.50;;;6.48;59.79
36222;BME280;22266;52.340;4.962;2023-04-02T09:52:28;102373.94;;;6.72;59.91
36222;BME280;22266;52.340;4.962;2023-04-02T09:57:49;102386.91;;;6.76;56.71
36222;BME280;22266;52.340;4.962;2023-04-02T10:00:19;102395.50;;;6.70;58.65
36222;BME280;22266;52.340;4.962;2023-04-02T10:05:39;102399.41;;;6.66;57.29
36222;BME280;22266;52.340;4.962;2023-04-02T10:08:19;102393.25;;;6.75;58.09
36222;BME280;22266;52.340;4.962;2023-04-02T10:10:52;102399.13;;;6.90;58.77
36222;BME280;22266;52.340;4.962;2023-04-02T10:13:28;102393.75;;;7.11;57.66
36222;BME280;22266;52.340;4.962;2023-04-02T10:16:02;102417.88;;;7.21;57.48
36222;BME280;22266;52.340;4.962;2023-04-02T10:18:45;102415.44;;;7.08;56.83
36222;BME280;22266;52.340;4.962;2023-04-02T10:21:17;102416.22;;;6.99;56.89
36222;BME280;22266;52.340;4.962;2023-04-02T10:23:44;102403.84;;;6.98;56.03
36222;BME280;22266;52.340;4.962;2023-04-02T10:26:32;102402.50;;;6.92;58.32
36222;BME280;22266;52.340;4.962;2023-04-02T10:29:45;102409.44;;;6.94;56.44
36222;BME280;22266;52.340;4.962;2023-04-02T10:32:09;102413.09;;;6.93;57.41
36222;BME280;22266;52.340;4.962;2023-04-02T10:34:56;102419.75;;;6.99;58.02
36222;BME280;22266;52.340;4.962;2023-04-02T10:40:57;102429.06;;;7.05;56.75
36222;BME280;22266;52.340;4.962;2023-04-02T10:43:47;102438.25;;;7.33;57.50
36222;BME280;22266;52.340;4.962;2023-04-02T10:49:19;102451.44;;;7.46;55.56
36222;BME280;22266;52.340;4.962;2023-04-02T10:51:58;102454.78;;;7.38;55.70
36222;BME280;22266;52.340;4.962;2023-04-02T10:57:19;102443.16;;;7.58;55.91
36222;BME280;22266;52.340;4.962;2023-04-02T11:00:00;102451.47;;;7.55;55.74
36222;BME280;22266;52.340;4.962;2023-04-02T11:02:45;102447.78;;;7.47;56.06
36222;BME280;22266;52.340;4.962;2023-04-02T11:05:34;102453.13;;;7.47;54.89
36222;BME280;22266;52.340;4.962;2023-04-02T11:08:15;102450.88;;;7.52;55.99
36222;BME280;22266;52.340;4.962;2023-04-02T11:10:52;102450.63;;;7.55;55.55
36222;BME280;22266;52.340;4.962;2023-04-02T11:13:28;102461.53;;;7.63;55.97
36222;BME280;22266;52.340;4.962;2023-04-02T11:15:56;102456.06;;;7.74;55.49
36222;BME280;22266;52.340;4.962;2023-04-02T11:18:29;102460.19;;;7.88;55.32
36222;BME280;22266;52.340;4.962;2023-04-02T11:21:02;102469.06;;;7.88;55.25
36222;BME280;22266;52.340;4.962;2023-04-02T11:23:33;102466.44;;;7.98;55.51
36222;BME280;22266;52.340;4.962;2023-04-02T11:29:26;102504.31;;;8.24;53.68
36222;BME280;22266;52.340;4.962;2023-04-02T11:32:14;102481.09;;;7.94;55.00
36222;BME280;22266;52.340;4.962;2023-04-02T11:37:41;102494.88;;;7.80;54.35
36222;BME280;22266;52.340;4.962;2023-04-02T11:42:46;102487.25;;;7.85;55.33
36222;BME280;22266;52.340;4.962;2023-04-02T11:50:30;102505.69;;;8.09;55.60
36222;BME280;22266;52.340;4.962;2023-04-02T11:53:01;102508.00;;;8.23;55.15
36222;BME280;22266;52.340;4.962;2023-04-02T11:55:29;102504.84;;;8.18;52.86
36222;BME280;22266;52.340;4.962;2023-04-02T12:04:05;102505.72;;;8.18;54.31
36222;BME280;22266;52.340;4.962;2023-04-02T12:09:26;102520.63;;;8.52;53.88
36222;BME280;22266;52.340;4.962;2023-04-02T12:11:59;102526.84;;;8.52;53.92
36222;BME280;22266;52.340;4.962;2023-04-02T12:14:46;102526.00;;;8.52;53.24
36222;BME280;22266;52.340;4.962;2023-04-02T12:17:24;102523.72;;;8.37;53.49
36222;BME280;22266;52.340;4.962;2023-04-02T12:20:16;102527.25;;;8.38;54.38
36222;BME280;22266;52.340;4.962;2023-04-02T12:22:48;102533.34;;;8.50;53.67
36222;BME280;22266;52.340;4.962;2023-04-02T12:28:23;102533.06;;;8.82;54.04
36222;BME280;22266;52.340;4.962;2023-04-02T12:30:50;102527.84;;;8.90;52.03
36222;BME280;22266;52.340;4.962;2023-04-02T12:33:30;102518.25;;;8.97;53.67
36222;BME280;22266;52.340;4.962;2023-04-02T12:36:00;102537.59;;;9.20;52.83
36222;BME280;22266;52.340;4.962;2023-04-02T12:39:15;102529.34;;;9.31;51.91
36222;BME280;22266;52.340;4.962;2023-04-02T12:41:22;102534.72;;;9.41;52.34
36222;BME280;22266;52.340;4.962;2023-04-02T12:44:10;102531.22;;;9.21;50.76
36222;BME280;22266;52.340;4.962;2023-04-02T12:46:41;102535.03;;;9.28;52.50
36222;BME280;22266;52.340;4.962;2023-04-02T12:49:39;102546.63;;;9.29;50.35
36222;BME280;22266;52.340;4.962;2023-04-02T12:52:09;102539.41;;;9.29;51.25
36222;BME280;22266;52.340;4.962;2023-04-02T12:54:44;102552.97;;;9.37;51.73
36222;BME280;22266;52.340;4.962;2023-04-02T13:00:46;102557.69;;;9.16;51.29
36222;BME280;22266;52.340;4.962;2023-04-02T13:02:59;102544.94;;;9.18;51.05
36222;BME280;22266;52.340;4.962;2023-04-02T13:08:01;102553.28;;;9.25;51.06
36222;BME280;22266;52.340;4.962;2023-04-02T13:10:28;102548.59;;;9.36;50.38
36222;BME280;22266;52.340;4.962;2023-04-02T13:12:58;102539.38;;;9.49;50.73
36222;BME280;22266;52.340;4.962;2023-04-02T13:15:31;102542.97;;;9.67;50.90
36222;BME280;22266;52.340;4.962;2023-04-02T13:22:59;102556.31;;;9.69;51.55
36222;BME280;22266;52.340;4.962;2023-04-02T13:25:31;102556.16;;;9.70;50.85
36222;BME280;22266;52.340;4.962;2023-04-02T13:28:00;102558.56;;;9.73;51.55
36222;BME280;22266;52.340;4.962;2023-04-02T13:30:27;102550.59;;;9.81;51.92
36222;BME280;22266;52.340;4.962;2023-04-02T13:32:54;102558.97;;;10.06;51.15
36222;BME280;22266;52.340;4.962;2023-04-02T13:35:21;102542.03;;;9.96;49.53
36222;BME280;22266;52.340;4.962;2023-04-02T13:37:48;102558.38;;;9.84;49.71
36222;BME280;22266;52.340;4.962;2023-04-02T13:40:15;102561.94;;;9.75;50.60
36222;BME280;22266;52.340;4.962;2023-04-02T13:42:43;102574.25;;;9.78;51.58
36222;BME280;22266;52.340;4.962;2023-04-02T13:45:39;102564.59;;;9.85;50.45
36222;BME280;22266;52.340;4.962;2023-04-02T13:48:14;102570.78;;;9.95;49.78
36222;BME280;22266;52.340;4.962;2023-04-02T13:50:41;102579.00;;;9.94;50.03
36222;BME280;22266;52.340;4.962;2023-04-02T13:53:14;102578.34;;;9.82;48.88
36222;BME280;22266;52.340;4.962;2023-04-02T13:55:44;102578.50;;;9.71;49.43
36222;BME280;22266;52.340;4.962;2023-04-02T13:58:11;102573.41;;;9.68;51.37
36222;BME280;22266;52.340;4.962;2023-04-02T14:00:37;102573.84;;;9.73;51.54
36222;BME280;22266;52.340;4.962;2023-04-02T14:03:07;102571.00;;;9.74;50.55
36222;BME280;22266;52.340;4.962;2023-04-02T14:06:03;102577.22;;;9.75;51.62
36222;BME280;22266;52.340;4.962;2023-04-02T14:08:52;102578.50;;;9.71;51.79
36222;BME280;22266;52.340;4.962;2023-04-02T14:17:16;102584.59;;;9.63;51.72
36222;BME280;22266;52.340;4.962;2023-04-02T14:20:14;102574.25;;;9.78;51.74
36222;BME280;22266;52.340;4.962;2023-04-02T14:25:34;102582.25;;;9.40;50.95
36222;BME280;22266;52.340;4.962;2023-04-02T14:36:57;102595.81;;;9.49;52.33
36222;BME280;22266;52.340;4.962;2023-04-02T14:45:01;102608.09;;;9.71;51.00
36222;BME280;22266;52.340;4.962;2023-04-02T14:47:53;102601.44;;;9.65;51.60
36222;BME280;22266;52.340;4.962;2023-04-02T14:50:24;102609.38;;;9.66;51.75
36222;BME280;22266;52.340;4.962;2023-04-02T14:52:57;102608.63;;;9.74;52.45
36222;BME280;22266;52.340;4.962;2023-04-02T14:55:37;102608.81;;;9.73;52.55
36222;BME280;22266;52.340;4.962;2023-04-02T14:58:14;102622.78;;;9.76;51.95
36222;BME280;22266;52.340;4.962;2023-04-02T15:00:44;102624.78;;;9.74;50.70
36222;BME280;22266;52.340;4.962;2023-04-02T15:03:20;102631.00;;;9.75;52.60
36222;BME280;22266;52.340;4.962;2023-04-02T15:05:58;102623.66;;;9.77;51.26
36222;BME280;22266;52.340;4.962;2023-04-02T15:08:27;102622.38;;;9.71;51.10
36222;BME280;22266;52.340;4.962;2023-04-02T15:16:14;102628.34;;;9.65;50.76
36222;BME280;22266;52.340;4.962;2023-04-02T15:18:45;102628.34;;;9.65;51.31
36222;BME280;22266;52.340;4.962;2023-04-02T15:27:07;102626.59;;;9.83;52.28
36222;BME280;22266;52.340;4.962;2023-04-02T15:30:10;102617.84;;;9.81;51.71
36222;BME280;22266;52.340;4.962;2023-04-02T15:32:40;102629.31;;;9.74;51.61
36222;BME280;22266;52.340;4.962;2023-04-02T15:38:15;102622.81;;;9.66;51.72
36222;BME280;22266;52.340;4.962;2023-04-02T15:40:45;102628.19;;;9.66;50.84
36222;BME280;22266;52.340;4.962;2023-04-02T15:43:19;102623.53;;;9.69;50.99
36222;BME280;22266;52.340;4.962;2023-04-02T15:46:02;102626.63;;;9.74;52.00
36222;BME280;22266;52.340;4.962;2023-04-02T15:49:12;102620.81;;;9.78;52.17
36222;BME280;22266;52.340;4.962;2023-04-02T15:55:01;102638.22;;;9.74;51.50
36222;BME280;22266;52.340;4.962;2023-04-02T15:57:52;102643.75;;;9.73;51.06
36222;BME280;22266;52.340;4.962;2023-04-02T16:03:32;102648.00;;;9.65;50.69
36222;BME280;22266;52.340;4.962;2023-04-02T16:09:01;102658.63;;;9.67;50.46
36222;BME280;22266;52.340;4.962;2023-04-02T16:11:28;102649.41;;;9.60;50.03
36222;BME280;22266;52.340;4.962;2023-04-02T16:14:09;102651.13;;;9.61;51.47
36222;BME280;22266;52.340;4.962;2023-04-02T16:16:41;102654.50;;;9.63;52.38
36222;BME280;22266;52.340;4.962;2023-04-02T16:19:29;102660.03;;;9.71;52.45